Csl Tecumseh — C6ZJ6 — position and weather

sailwx.info

Track history (hours):
 
Tides and Currents Weather Stations Pressure Air Temp Water Temp Dewpoint Dewpoint Depression Visibility Wind Speed Wind Dir Waves Ship Positions

Csl Tecumseh

Last reported at 2018-Feb-20 11:09 UTC. Time now 2018-Feb-21 03:30 UTC.
Position N 48°14' W 125°46'.

Length 229 m; draft 11.2 m.

Type: Cargo ship. MMSI: 311056900.

Date/timePositionNaut miles runAvg speedWind from/ knotsBaromVisibWave heightAir tempDewpointWater temp
2018-Feb-20 11:09N 48°14' W 125°46'211.2
2018-Feb-20 10:59N 48°15' W 125°44'510.9
2018-Feb-20 10:30N 48°19' W 125°37'610.8
2018-Feb-20 09:58N 48°22' W 125°31'511.1
2018-Feb-20 09:30N 48°25' W 125°24'611.3
2018-Feb-20 08:59N 48°28' W 125°17'511.2
2018-Feb-20 08:30N 48°31' W 125°10'611.9
2018-Feb-20 07:59N 48°31' W 125°00'612.3
2018-Feb-20 07:30N 48°31' W 124°52'612.7
2018-Feb-20 07:00N 48°30' W 124°42'713.4
2018-Feb-20 06:30N 48°28' W 124°33'713.4
2018-Feb-20 06:00N 48°25' W 124°23'713.4
2018-Feb-20 05:30N 48°22' W 124°14'713.0
2018-Feb-20 05:00N 48°20' W 124°05'713.3
2018-Feb-20 04:29N 48°17' W 123°55'612.7
2018-Feb-20 03:59N 48°17' W 123°46'17 9.7
2018-Feb-20 02:15N 48°23' W 123°22'311.0
2018-Feb-20 02:00N 48°23' W 123°18'611.1
2018-Feb-20 01:30N 48°27' W 123°12'714.4
2018-Feb-20 01:00N 48°34' W 123°13'713.7
2018-Feb-20 00:30N 48°41' W 123°15'612.7
2018-Feb-20 00:00N 48°45' W 123°07'612.3
2018-Feb-19 23:30N 48°49' W 123°00'714.5
2018-Feb-19 23:00N 48°54' W 123°08'714.5
2018-Feb-19 22:30N 48°59' W 123°16'714.4
2018-Feb-19 22:00N 49°04' W 123°24'714.8
2018-Feb-19 21:30N 49°10' W 123°30'714.5
2018-Feb-19 21:01N 49°16' W 123°36'813.9
2018-Feb-19 20:28N 49°23' W 123°43'5 0.2
2018-Feb-18 20:56N 49°27' W 123°46'3 6.9
2018-Feb-18 20:30N 49°24' W 123°44'713.9
2018-Feb-18 20:00N 49°19' W 123°38'714.8
2018-Feb-18 19:30N 49°13' W 123°31'714.1
2018-Feb-18 19:01N 49°07' W 123°24'714.1
2018-Feb-18 18:30N 49°02' W 123°17'713.6
2018-Feb-18 18:01N 48°57' W 123°10'714.0
2018-Feb-18 17:30N 48°52' W 123°03'611.1
2018-Feb-18 16:59N 48°46' W 123°03'612.9
2018-Feb-18 16:30N 48°43' W 123°11'510.9
2018-Feb-18 16:01N 48°38' W 123°14'714.3
2018-Feb-18 15:30N 48°31' W 123°11'612.7
2018-Feb-18 15:00N 48°24' W 123°12'713.7
2018-Feb-18 14:30N 48°22' W 123°22'4 8.5
2018-Feb-18 14:00N 48°18' W 123°25'612.1
2018-Feb-18 13:29N 48°14' W 123°31'713.9
2018-Feb-18 12:59N 48°13' W 123°41'1413.0
2018-Feb-18 11:52N 48°15' W 124°03'613.8
2018-Feb-18 11:26N 48°18' W 124°11'613.5
2018-Feb-18 11:00N 48°21' W 124°19'713.4
2018-Feb-18 10:31N 48°23' W 124°28'713.0
2018-Feb-18 10:00N 48°26' W 124°37'612.2
2018-Feb-18 09:30N 48°28' W 124°45'612.3
2018-Feb-18 09:00N 48°28' W 124°54'510.2
2018-Feb-18 08:29N 48°25' W 125°01'510.5
2018-Feb-18 07:58N 48°21' W 125°06'104 7.7
2018-Feb-17 18:27N 46°39' W 125°33'8 9.2
2018-Feb-17 17:32N 46°30' W 125°34'1711.7
2018-Feb-17 16:06N 46°14' W 125°33'110.3
2018-Feb-17 16:00N 46°13' W 125°33'510.4
2018-Feb-17 15:29N 46°07' W 125°33'510.7
2018-Feb-17 15:00N 46°02' W 125°33'46210.4
2018-Feb-15 18:44N 38°23' W 124°26'510.7
2018-Feb-15 18:17N 38°19' W 124°23'312.2
2018-Feb-15 18:00N 38°16' W 124°21'1312.6
2018-Feb-15 16:58N 38°04' W 124°13'510.6
2018-Feb-15 16:30N 38°00' W 124°09'510.8
2018-Feb-15 16:00N 37°56' W 124°06'510.6
2018-Feb-15 15:30N 37°51' W 124°03'510.5
2018-Feb-15 15:00N 37°46' W 123°59'14510.9
2018-Feb-15 01:41N 35°42' W 122°27'211.4
2018-Feb-15 01:30N 35°40' W 122°26'711.3
2018-Feb-15 00:52N 35°34' W 122°21'2611.3
2018-Feb-14 22:33N 35°11' W 122°04'011.5
2018-Feb-14 22:30N 35°11' W 122°04'811.4
2018-Feb-14 21:50N 35°04' W 121°59'411.3
2018-Feb-14 21:29N 35°01' W 121°57'1011.5
2018-Feb-14 20:35N 34°52' W 121°50'111.4
2018-Feb-14 20:30N 34°51' W 121°49'611.7
2018-Feb-14 20:00N 34°46' W 121°46'611.7
2018-Feb-14 19:30N 34°41' W 121°42'611.0
2018-Feb-14 19:00N 34°38' W 121°37'611.6
2018-Feb-14 18:30N 34°36' W 121°30'611.6
2018-Feb-14 18:00N 34°34' W 121°23'611.7
2018-Feb-14 17:30N 34°33' W 121°16'612.9
2018-Feb-14 17:01N 34°31' W 121°09'714.4
2018-Feb-14 16:30N 34°29' W 121°01'713.6
2018-Feb-14 16:00N 34°27' W 120°53'612.3
2018-Feb-14 15:30N 34°25' W 120°45'712.3
2018-Feb-14 14:55N 34°23' W 120°37'512.4
2018-Feb-14 14:30N 34°22' W 120°31'712.5
2018-Feb-14 13:58N 34°20' W 120°23'612.3
2018-Feb-14 13:29N 34°19' W 120°16'612.3
2018-Feb-14 12:59N 34°17' W 120°09'612.5
2018-Feb-14 12:29N 34°15' W 120°02'612.2
2018-Feb-14 12:00N 34°13' W 119°55'712.3
2018-Feb-14 11:23N 34°11' W 119°46'512.6
2018-Feb-14 11:00N 34°10' W 119°41'612.6
2018-Feb-14 10:30N 34°09' W 119°33'612.6
2018-Feb-14 10:00N 34°07' W 119°26'712.7
2018-Feb-14 09:27N 34°05' W 119°18'612.6
2018-Feb-14 08:59N 34°03' W 119°11'712.8
2018-Feb-14 08:26N 33°59' W 119°04'511.6
2018-Feb-14 08:00N 33°56' W 118°59'510.6
2018-Feb-14 07:30N 33°54' W 118°53'510.9
2018-Feb-14 07:00N 33°51' W 118°48'511.0
2018-Feb-14 06:30N 33°48' W 118°42'510.7
2018-Feb-14 06:00N 33°46' W 118°36'610.9
2018-Feb-14 05:28N 33°43' W 118°30'510.7
2018-Feb-14 04:58N 33°40' W 118°25'810.7
2018-Feb-14 04:12N 33°38' W 118°15'210.7
2018-Feb-14 04:00N 33°39' W 118°13'5 9.1
2018-Feb-14 03:30N 33°43' W 118°11'3 6.2
2018-Feb-14 03:00N 33°46' W 118°13'0 0.3
2018-Feb-14 01:45N 33°46' W 118°13'0 0.0
2018-Feb-14 01:30N 33°46' W 118°13'0 0.0
2018-Feb-14 01:00N 33°46' W 118°13'0 0.0
2018-Feb-14 00:30N 33°46' W 118°13'0 0.0
2018-Feb-14 00:00N 33°46' W 118°13'0 0.0
2018-Feb-13 23:30N 33°46' W 118°13'0 0.0
2018-Feb-13 23:00N 33°46' W 118°13'0 0.0
2018-Feb-13 22:30N 33°46' W 118°13'0 0.0
2018-Feb-13 22:00N 33°46' W 118°13'0 0.0
2018-Feb-13 21:30N 33°46' W 118°13'0 0.0
2018-Feb-13 21:00N 33°46' W 118°13'0 0.0
2018-Feb-13 20:30N 33°46' W 118°13'0 0.0
2018-Feb-13 20:00N 33°46' W 118°13'0 0.0
2018-Feb-13 19:30N 33°46' W 118°13'0 0.0
2018-Feb-13 19:00N 33°46' W 118°13'0 0.0
2018-Feb-13 18:30N 33°46' W 118°13'0 0.0
2018-Feb-13 18:00N 33°46' W 118°13'0 0.0
2018-Feb-13 17:30N 33°46' W 118°13'0 0.0
2018-Feb-13 17:00N 33°46' W 118°13'0 0.0
2018-Feb-13 16:30N 33°46' W 118°13'0 0.0
2018-Feb-13 16:00N 33°46' W 118°13'0 0.0
2018-Feb-13 15:24N 33°46' W 118°13'0 0.0
2018-Feb-13 15:00N 33°46' W 118°13'0 0.0
2018-Feb-13 14:27N 33°46' W 118°13'0 0.0
2018-Feb-13 13:57N 33°46' W 118°13'0 0.0
2018-Feb-13 13:27N 33°46' W 118°13'0 0.0
2018-Feb-13 12:57N 33°46' W 118°13'0 0.0
2018-Feb-13 12:27N 33°46' W 118°13'0 0.0
2018-Feb-13 11:51N 33°46' W 118°13'0 0.0
2018-Feb-13 11:12N 33°46' W 118°13'0 0.0
2018-Feb-13 11:00N 33°46' W 118°13'0 0.0
2018-Feb-13 10:21N 33°46' W 118°13'0 0.0
2018-Feb-13 09:57N 33°46' W 118°13'0 0.0
2018-Feb-13 09:27N 33°46' W 118°13'0 0.0
2018-Feb-13 08:57N 33°46' W 118°13'0 0.0
2018-Feb-13 08:09N 33°46' W 118°13'0 0.0
2018-Feb-13 07:51N 33°46' W 118°13'0 0.0
2018-Feb-13 07:27N 33°46' W 118°13'0 0.0
2018-Feb-13 06:51N 33°46' W 118°13'0 0.0
2018-Feb-13 06:27N 33°46' W 118°13'0 0.0
2018-Feb-13 05:51N 33°46' W 118°13'0 0.0
2018-Feb-13 05:27N 33°46' W 118°13'0 0.0
2018-Feb-13 04:57N 33°46' W 118°13'0 0.0
2018-Feb-13 04:27N 33°46' W 118°13'0 0.0
2018-Feb-13 03:57N 33°46' W 118°13'0 0.0
2018-Feb-13 03:27N 33°46' W 118°13'0 0.0
2018-Feb-13 02:57N 33°46' W 118°13'0 0.0
2018-Feb-13 02:27N 33°46' W 118°13'0 0.0
2018-Feb-13 01:57N 33°46' W 118°13'0 0.0
2018-Feb-13 01:30N 33°46' W 118°13'0 0.0
2018-Feb-13 00:57N 33°46' W 118°13'0 0.0
2018-Feb-13 00:30N 33°46' W 118°13'0 0.0
2018-Feb-13 00:00N 33°46' W 118°13'0 0.0
2018-Feb-12 23:27N 33°46' W 118°13'0 0.0
2018-Feb-12 22:57N 33°46' W 118°13'0 0.0
2018-Feb-12 22:30N 33°46' W 118°13'0 0.0
2018-Feb-12 22:00N 33°46' W 118°13'0 0.0
2018-Feb-12 21:30N 33°46' W 118°13'0 0.0
2018-Feb-12 20:57N 33°46' W 118°13'0 0.0
2018-Feb-12 20:30N 33°46' W 118°13'0 0.0
2018-Feb-12 20:00N 33°46' W 118°13'0 0.0
2018-Feb-12 19:24N 33°46' W 118°13'0 0.0
2018-Feb-12 19:00N 33°46' W 118°13'0 0.0
2018-Feb-12 18:30N 33°46' W 118°13'0 0.0
2018-Feb-12 18:00N 33°46' W 118°13'0 0.0
2018-Feb-12 17:30N 33°46' W 118°13'0 0.0
2018-Feb-12 17:00N 33°46' W 118°13'0 0.0
2018-Feb-12 16:30N 33°46' W 118°13'0 0.0
2018-Feb-12 16:00N 33°46' W 118°13'0 0.0
2018-Feb-12 15:15N 33°46' W 118°13'0 0.0
2018-Feb-12 15:00N 33°46' W 118°13'0 0.0
2018-Feb-12 14:30N 33°46' W 118°13'0 0.0
2018-Feb-12 13:45N 33°46' W 118°13'0 0.0
2018-Feb-12 13:21N 33°46' W 118°13'0 0.0
2018-Feb-12 12:57N 33°46' W 118°13'0 0.0
2018-Feb-12 12:27N 33°46' W 118°13'0 0.0
2018-Feb-12 11:57N 33°46' W 118°13'0 0.0
2018-Feb-12 11:27N 33°46' W 118°13'0 0.0
2018-Feb-12 10:57N 33°46' W 118°13'0 0.0
2018-Feb-12 10:27N 33°46' W 118°13'0 0.0
2018-Feb-12 09:57N 33°46' W 118°13'0 0.0
2018-Feb-12 09:27N 33°46' W 118°13'0 0.0
2018-Feb-12 08:45N 33°46' W 118°13'0 0.0
2018-Feb-12 08:27N 33°46' W 118°13'0 0.0
2018-Feb-12 07:45N 33°46' W 118°13'0 0.0
2018-Feb-12 07:27N 33°46' W 118°13'0 0.0
2018-Feb-12 06:57N 33°46' W 118°13'0 0.0
2018-Feb-12 06:15N 33°46' W 118°13'0 0.0
2018-Feb-12 05:57N 33°46' W 118°13'0 0.0
2018-Feb-12 05:27N 33°46' W 118°13'0 0.0
2018-Feb-12 04:57N 33°46' W 118°13'0 0.0
2018-Feb-12 04:21N 33°46' W 118°13'0 0.0
2018-Feb-12 03:57N 33°46' W 118°13'0 0.0
2018-Feb-12 03:27N 33°46' W 118°13'0 0.0
2018-Feb-12 02:57N 33°46' W 118°13'0 0.0
2018-Feb-12 01:36N 33°46' W 118°13'0 0.0
2018-Feb-12 01:27N 33°46' W 118°13'0 0.0
2018-Feb-12 01:00N 33°46' W 118°13'0 0.0
2018-Feb-12 00:30N 33°46' W 118°13'0 0.0
2018-Feb-11 23:57N 33°46' W 118°13'0 0.0
2018-Feb-11 23:30N 33°46' W 118°13'0 0.9
2018-Feb-11 23:00N 33°46' W 118°13'2 4.5
2018-Feb-11 22:30N 33°44' W 118°12'4 7.2
2018-Feb-11 22:00N 33°40' W 118°11'4 8.1
2018-Feb-11 21:30N 33°37' W 118°14'510.1
2018-Feb-11 21:00N 33°36' W 118°20'611.4
2018-Feb-11 20:30N 33°39' W 118°26'711.8
2018-Feb-11 19:57N 33°42' W 118°33'511.8
2018-Feb-11 19:29N 33°45' W 118°39'611.7
2018-Feb-11 19:00N 33°47' W 118°45'611.7
2018-Feb-11 18:29N 33°50' W 118°51'611.8
2018-Feb-11 17:59N 33°53' W 118°57'911.9
2018-Feb-11 17:12N 33°58' W 119°07'312.6
2018-Feb-11 17:00N 33°59' W 119°09'712.2
2018-Feb-11 16:28N 34°02' W 119°16'612.2
2018-Feb-11 16:00N 34°04' W 119°23'612.5
2018-Feb-11 15:29N 34°06' W 119°30'612.4
2018-Feb-11 15:00N 34°07' W 119°37'612.7
2018-Feb-11 14:30N 34°09' W 119°45'713.2
2018-Feb-11 13:59N 34°11' W 119°53'612.8
2018-Feb-11 13:28N 34°12' W 120°00'712.5
2018-Feb-11 12:56N 34°14' W 120°08'512.3
2018-Feb-11 12:30N 34°15' W 120°15'712.3
2018-Feb-11 11:56N 34°17' W 120°23'612.7
2018-Feb-11 11:28N 34°19' W 120°30'612.2
2018-Feb-11 11:00N 34°20' W 120°36'612.0
2018-Feb-11 10:30N 34°22' W 120°43'611.9
2018-Feb-11 10:00N 34°24' W 120°50'611.5
2018-Feb-11 09:30N 34°27' W 120°55'612.2
2018-Feb-11 09:00N 34°32' W 120°60'510.8
2018-Feb-11 08:30N 34°37' W 121°04'3 6.1
2018-Feb-11 08:00N 34°39' W 121°05'611.6
2018-Feb-11 07:30N 34°44' W 121°09'713.1
2018-Feb-11 07:00N 34°50' W 121°13'613.0
2018-Feb-11 06:30N 34°55' W 121°18'713.0
2018-Feb-11 06:00N 35°01' W 121°22'612.9
2018-Feb-11 05:30N 35°06' W 121°26'713.2
2018-Feb-11 05:00N 35°12' W 121°31'713.4
2018-Feb-11 04:30N 35°17' W 121°35'713.4
2018-Feb-11 04:00N 35°23' W 121°40'713.6
2018-Feb-11 03:29N 35°29' W 121°45'10813.6
2018-Feb-10 19:33N 36°59' W 122°57'213.1
2018-Feb-10 19:24N 37°00' W 122°59'812.9
2018-Feb-10 18:45N 37°07' W 123°05'413.1
2018-Feb-10 18:28N 37°10' W 123°07'613.1
2018-Feb-10 18:00N 37°15' W 123°11'1012.8
2018-Feb-10 17:14N 37°24' W 123°18'312.9
2018-Feb-10 17:00N 37°26' W 123°20'712.9
2018-Feb-10 16:30N 37°32' W 123°24'713.1
2018-Feb-10 16:00N 37°38' W 123°27'713.2
2018-Feb-10 15:30N 37°44' W 123°30'612.9
2018-Feb-10 15:00N 37°50' W 123°34'612.7
2018-Feb-10 14:30N 37°56' W 123°37'612.6
2018-Feb-10 14:00N 38°02' W 123°40'612.9
2018-Feb-10 13:30N 38°08' W 123°43'713.3
2018-Feb-10 13:00N 38°14' W 123°46'713.5
2018-Feb-10 12:30N 38°20' W 123°49'713.7
2018-Feb-10 12:00N 38°27' W 123°52'713.7
2018-Feb-10 11:30N 38°33' W 123°55'  
Track history (hours):
 
Tides and Currents Weather Stations Pressure Air Temp Water Temp Dewpoint Dewpoint Depression Visibility Wind Speed Wind Dir Waves Ship Positions

Csl Tecumseh

Last reported at 2018-Feb-20 11:09 UTC. Time now 2018-Feb-21 03:30 UTC.
Position N 48°14' W 125°46'.

Length 229 m; draft 11.2 m.

Type: Cargo ship. MMSI: 311056900.

Date/timePositionNaut miles runAvg speedWind from/ knotsBaromVisibWave heightAir tempDewpointWater temp
2018-Feb-20 11:09N 48°14' W 125°46'211.2
2018-Feb-20 10:59N 48°15' W 125°44'510.9
2018-Feb-20 10:30N 48°19' W 125°37'610.8
2018-Feb-20 09:58N 48°22' W 125°31'511.1
2018-Feb-20 09:30N 48°25' W 125°24'611.3
2018-Feb-20 08:59N 48°28' W 125°17'511.2
2018-Feb-20 08:30N 48°31' W 125°10'611.9
2018-Feb-20 07:59N 48°31' W 125°00'612.3
2018-Feb-20 07:30N 48°31' W 124°52'612.7
2018-Feb-20 07:00N 48°30' W 124°42'713.4
2018-Feb-20 06:30N 48°28' W 124°33'713.4
2018-Feb-20 06:00N 48°25' W 124°23'713.4
2018-Feb-20 05:30N 48°22' W 124°14'713.0
2018-Feb-20 05:00N 48°20' W 124°05'713.3
2018-Feb-20 04:29N 48°17' W 123°55'612.7
2018-Feb-20 03:59N 48°17' W 123°46'17 9.7
2018-Feb-20 02:15N 48°23' W 123°22'311.0
2018-Feb-20 02:00N 48°23' W 123°18'611.1
2018-Feb-20 01:30N 48°27' W 123°12'714.4
2018-Feb-20 01:00N 48°34' W 123°13'713.7
2018-Feb-20 00:30N 48°41' W 123°15'612.7
2018-Feb-20 00:00N 48°45' W 123°07'612.3
2018-Feb-19 23:30N 48°49' W 123°00'714.5
2018-Feb-19 23:00N 48°54' W 123°08'714.5
2018-Feb-19 22:30N 48°59' W 123°16'714.4
2018-Feb-19 22:00N 49°04' W 123°24'714.8
2018-Feb-19 21:30N 49°10' W 123°30'714.5
2018-Feb-19 21:01N 49°16' W 123°36'813.9
2018-Feb-19 20:28N 49°23' W 123°43'5 0.2
2018-Feb-18 20:56N 49°27' W 123°46'3 6.9
2018-Feb-18 20:30N 49°24' W 123°44'713.9
2018-Feb-18 20:00N 49°19' W 123°38'714.8
2018-Feb-18 19:30N 49°13' W 123°31'714.1
2018-Feb-18 19:01N 49°07' W 123°24'714.1
2018-Feb-18 18:30N 49°02' W 123°17'713.6
2018-Feb-18 18:01N 48°57' W 123°10'714.0
2018-Feb-18 17:30N 48°52' W 123°03'611.1
2018-Feb-18 16:59N 48°46' W 123°03'612.9
2018-Feb-18 16:30N 48°43' W 123°11'510.9
2018-Feb-18 16:01N 48°38' W 123°14'714.3
2018-Feb-18 15:30N 48°31' W 123°11'612.7
2018-Feb-18 15:00N 48°24' W 123°12'713.7
2018-Feb-18 14:30N 48°22' W 123°22'4 8.5
2018-Feb-18 14:00N 48°18' W 123°25'612.1
2018-Feb-18 13:29N 48°14' W 123°31'713.9
2018-Feb-18 12:59N 48°13' W 123°41'1413.0
2018-Feb-18 11:52N 48°15' W 124°03'613.8
2018-Feb-18 11:26N 48°18' W 124°11'613.5
2018-Feb-18 11:00N 48°21' W 124°19'713.4
2018-Feb-18 10:31N 48°23' W 124°28'713.0
2018-Feb-18 10:00N 48°26' W 124°37'612.2
2018-Feb-18 09:30N 48°28' W 124°45'612.3
2018-Feb-18 09:00N 48°28' W 124°54'510.2
2018-Feb-18 08:29N 48°25' W 125°01'510.5
2018-Feb-18 07:58N 48°21' W 125°06'104 7.7
2018-Feb-17 18:27N 46°39' W 125°33'8 9.2
2018-Feb-17 17:32N 46°30' W 125°34'1711.7
2018-Feb-17 16:06N 46°14' W 125°33'110.3
2018-Feb-17 16:00N 46°13' W 125°33'510.4
2018-Feb-17 15:29N 46°07' W 125°33'510.7
2018-Feb-17 15:00N 46°02' W 125°33'46210.4
2018-Feb-15 18:44N 38°23' W 124°26'510.7
2018-Feb-15 18:17N 38°19' W 124°23'312.2
2018-Feb-15 18:00N 38°16' W 124°21'1312.6
2018-Feb-15 16:58N 38°04' W 124°13'510.6
2018-Feb-15 16:30N 38°00' W 124°09'510.8
2018-Feb-15 16:00N 37°56' W 124°06'510.6
2018-Feb-15 15:30N 37°51' W 124°03'510.5
2018-Feb-15 15:00N 37°46' W 123°59'14510.9
2018-Feb-15 01:41N 35°42' W 122°27'211.4
2018-Feb-15 01:30N 35°40' W 122°26'711.3
2018-Feb-15 00:52N 35°34' W 122°21'2611.3
2018-Feb-14 22:33N 35°11' W 122°04'011.5
2018-Feb-14 22:30N 35°11' W 122°04'811.4
2018-Feb-14 21:50N 35°04' W 121°59'411.3
2018-Feb-14 21:29N 35°01' W 121°57'1011.5
2018-Feb-14 20:35N 34°52' W 121°50'111.4
2018-Feb-14 20:30N 34°51' W 121°49'611.7
2018-Feb-14 20:00N 34°46' W 121°46'611.7
2018-Feb-14 19:30N 34°41' W 121°42'611.0
2018-Feb-14 19:00N 34°38' W 121°37'611.6
2018-Feb-14 18:30N 34°36' W 121°30'611.6
2018-Feb-14 18:00N 34°34' W 121°23'611.7
2018-Feb-14 17:30N 34°33' W 121°16'612.9
2018-Feb-14 17:01N 34°31' W 121°09'714.4
2018-Feb-14 16:30N 34°29' W 121°01'713.6
2018-Feb-14 16:00N 34°27' W 120°53'612.3
2018-Feb-14 15:30N 34°25' W 120°45'712.3
2018-Feb-14 14:55N 34°23' W 120°37'512.4
2018-Feb-14 14:30N 34°22' W 120°31'712.5
2018-Feb-14 13:58N 34°20' W 120°23'612.3
2018-Feb-14 13:29N 34°19' W 120°16'612.3
2018-Feb-14 12:59N 34°17' W 120°09'612.5
2018-Feb-14 12:29N 34°15' W 120°02'612.2
2018-Feb-14 12:00N 34°13' W 119°55'712.3
2018-Feb-14 11:23N 34°11' W 119°46'512.6
2018-Feb-14 11:00N 34°10' W 119°41'612.6
2018-Feb-14 10:30N 34°09' W 119°33'612.6
2018-Feb-14 10:00N 34°07' W 119°26'712.7
2018-Feb-14 09:27N 34°05' W 119°18'612.6
2018-Feb-14 08:59N 34°03' W 119°11'712.8
2018-Feb-14 08:26N 33°59' W 119°04'511.6
2018-Feb-14 08:00N 33°56' W 118°59'510.6
2018-Feb-14 07:30N 33°54' W 118°53'510.9
2018-Feb-14 07:00N 33°51' W 118°48'511.0
2018-Feb-14 06:30N 33°48' W 118°42'510.7
2018-Feb-14 06:00N 33°46' W 118°36'610.9
2018-Feb-14 05:28N 33°43' W 118°30'510.7
2018-Feb-14 04:58N 33°40' W 118°25'810.7
2018-Feb-14 04:12N 33°38' W 118°15'210.7
2018-Feb-14 04:00N 33°39' W 118°13'5 9.1
2018-Feb-14 03:30N 33°43' W 118°11'3 6.2
2018-Feb-14 03:00N 33°46' W 118°13'0 0.3
2018-Feb-14 01:45N 33°46' W 118°13'0 0.0
2018-Feb-14 01:30N 33°46' W 118°13'0 0.0
2018-Feb-14 01:00N 33°46' W 118°13'0 0.0
2018-Feb-14 00:30N 33°46' W 118°13'0 0.0
2018-Feb-14 00:00N 33°46' W 118°13'0 0.0
2018-Feb-13 23:30N 33°46' W 118°13'0 0.0
2018-Feb-13 23:00N 33°46' W 118°13'0 0.0
2018-Feb-13 22:30N 33°46' W 118°13'0 0.0
2018-Feb-13 22:00N 33°46' W 118°13'0 0.0
2018-Feb-13 21:30N 33°46' W 118°13'0 0.0
2018-Feb-13 21:00N 33°46' W 118°13'0 0.0
2018-Feb-13 20:30N 33°46' W 118°13'0 0.0
2018-Feb-13 20:00N 33°46' W 118°13'0 0.0
2018-Feb-13 19:30N 33°46' W 118°13'0 0.0
2018-Feb-13 19:00N 33°46' W 118°13'0 0.0
2018-Feb-13 18:30N 33°46' W 118°13'0 0.0
2018-Feb-13 18:00N 33°46' W 118°13'0 0.0
2018-Feb-13 17:30N 33°46' W 118°13'0 0.0
2018-Feb-13 17:00N 33°46' W 118°13'0 0.0
2018-Feb-13 16:30N 33°46' W 118°13'0 0.0
2018-Feb-13 16:00N 33°46' W 118°13'0 0.0
2018-Feb-13 15:24N 33°46' W 118°13'0 0.0
2018-Feb-13 15:00N 33°46' W 118°13'0 0.0
2018-Feb-13 14:27N 33°46' W 118°13'0 0.0
2018-Feb-13 13:57N 33°46' W 118°13'0 0.0
2018-Feb-13 13:27N 33°46' W 118°13'0 0.0
2018-Feb-13 12:57N 33°46' W 118°13'0 0.0
2018-Feb-13 12:27N 33°46' W 118°13'0 0.0
2018-Feb-13 11:51N 33°46' W 118°13'0 0.0
2018-Feb-13 11:12N 33°46' W 118°13'0 0.0
2018-Feb-13 11:00N 33°46' W 118°13'0 0.0
2018-Feb-13 10:21N 33°46' W 118°13'0 0.0
2018-Feb-13 09:57N 33°46' W 118°13'0 0.0
2018-Feb-13 09:27N 33°46' W 118°13'0 0.0
2018-Feb-13 08:57N 33°46' W 118°13'0 0.0
2018-Feb-13 08:09N 33°46' W 118°13'0 0.0
2018-Feb-13 07:51N 33°46' W 118°13'0 0.0
2018-Feb-13 07:27N 33°46' W 118°13'0 0.0
2018-Feb-13 06:51N 33°46' W 118°13'0 0.0
2018-Feb-13 06:27N 33°46' W 118°13'0 0.0
2018-Feb-13 05:51N 33°46' W 118°13'0 0.0
2018-Feb-13 05:27N 33°46' W 118°13'0 0.0
2018-Feb-13 04:57N 33°46' W 118°13'0 0.0
2018-Feb-13 04:27N 33°46' W 118°13'0 0.0
2018-Feb-13 03:57N 33°46' W 118°13'0 0.0
2018-Feb-13 03:27N 33°46' W 118°13'0 0.0
2018-Feb-13 02:57N 33°46' W 118°13'0 0.0
2018-Feb-13 02:27N 33°46' W 118°13'0 0.0
2018-Feb-13 01:57N 33°46' W 118°13'0 0.0
2018-Feb-13 01:30N 33°46' W 118°13'0 0.0
2018-Feb-13 00:57N 33°46' W 118°13'0 0.0
2018-Feb-13 00:30N 33°46' W 118°13'0 0.0
2018-Feb-13 00:00N 33°46' W 118°13'0 0.0
2018-Feb-12 23:27N 33°46' W 118°13'0 0.0
2018-Feb-12 22:57N 33°46' W 118°13'0 0.0
2018-Feb-12 22:30N 33°46' W 118°13'0 0.0
2018-Feb-12 22:00N 33°46' W 118°13'0 0.0
2018-Feb-12 21:30N 33°46' W 118°13'0 0.0
2018-Feb-12 20:57N 33°46' W 118°13'0 0.0
2018-Feb-12 20:30N 33°46' W 118°13'0 0.0
2018-Feb-12 20:00N 33°46' W 118°13'0 0.0
2018-Feb-12 19:24N 33°46' W 118°13'0 0.0
2018-Feb-12 19:00N 33°46' W 118°13'0 0.0
2018-Feb-12 18:30N 33°46' W 118°13'0 0.0
2018-Feb-12 18:00N 33°46' W 118°13'0 0.0
2018-Feb-12 17:30N 33°46' W 118°13'0 0.0
2018-Feb-12 17:00N 33°46' W 118°13'0 0.0
2018-Feb-12 16:30N 33°46' W 118°13'0 0.0
2018-Feb-12 16:00N 33°46' W 118°13'0 0.0
2018-Feb-12 15:15N 33°46' W 118°13'0 0.0
2018-Feb-12 15:00N 33°46' W 118°13'0 0.0
2018-Feb-12 14:30N 33°46' W 118°13'0 0.0
2018-Feb-12 13:45N 33°46' W 118°13'0 0.0
2018-Feb-12 13:21N 33°46' W 118°13'0 0.0
2018-Feb-12 12:57N 33°46' W 118°13'0 0.0
2018-Feb-12 12:27N 33°46' W 118°13'0 0.0
2018-Feb-12 11:57N 33°46' W 118°13'0 0.0
2018-Feb-12 11:27N 33°46' W 118°13'0 0.0
2018-Feb-12 10:57N 33°46' W 118°13'0 0.0
2018-Feb-12 10:27N 33°46' W 118°13'0 0.0
2018-Feb-12 09:57N 33°46' W 118°13'0 0.0
2018-Feb-12 09:27N 33°46' W 118°13'0 0.0
2018-Feb-12 08:45N 33°46' W 118°13'0 0.0
2018-Feb-12 08:27N 33°46' W 118°13'0 0.0
2018-Feb-12 07:45N 33°46' W 118°13'0 0.0
2018-Feb-12 07:27N 33°46' W 118°13'0 0.0
2018-Feb-12 06:57N 33°46' W 118°13'0 0.0
2018-Feb-12 06:15N 33°46' W 118°13'0 0.0
2018-Feb-12 05:57N 33°46' W 118°13'0 0.0
2018-Feb-12 05:27N 33°46' W 118°13'0 0.0
2018-Feb-12 04:57N 33°46' W 118°13'0 0.0
2018-Feb-12 04:21N 33°46' W 118°13'0 0.0
2018-Feb-12 03:57N 33°46' W 118°13'0 0.0
2018-Feb-12 03:27N 33°46' W 118°13'0 0.0
2018-Feb-12 02:57N 33°46' W 118°13'0 0.0
2018-Feb-12 01:36N 33°46' W 118°13'0 0.0
2018-Feb-12 01:27N 33°46' W 118°13'0 0.0
2018-Feb-12 01:00N 33°46' W 118°13'0 0.0
2018-Feb-12 00:30N 33°46' W 118°13'0 0.0
2018-Feb-11 23:57N 33°46' W 118°13'0 0.0
2018-Feb-11 23:30N 33°46' W 118°13'0 0.9
2018-Feb-11 23:00N 33°46' W 118°13'2 4.5
2018-Feb-11 22:30N 33°44' W 118°12'4 7.2
2018-Feb-11 22:00N 33°40' W 118°11'4 8.1
2018-Feb-11 21:30N 33°37' W 118°14'510.1
2018-Feb-11 21:00N 33°36' W 118°20'611.4
2018-Feb-11 20:30N 33°39' W 118°26'711.8
2018-Feb-11 19:57N 33°42' W 118°33'511.8
2018-Feb-11 19:29N 33°45' W 118°39'611.7
2018-Feb-11 19:00N 33°47' W 118°45'611.7
2018-Feb-11 18:29N 33°50' W 118°51'611.8
2018-Feb-11 17:59N 33°53' W 118°57'911.9
2018-Feb-11 17:12N 33°58' W 119°07'312.6
2018-Feb-11 17:00N 33°59' W 119°09'712.2
2018-Feb-11 16:28N 34°02' W 119°16'612.2
2018-Feb-11 16:00N 34°04' W 119°23'612.5
2018-Feb-11 15:29N 34°06' W 119°30'612.4
2018-Feb-11 15:00N 34°07' W 119°37'612.7
2018-Feb-11 14:30N 34°09' W 119°45'713.2
2018-Feb-11 13:59N 34°11' W 119°53'612.8
2018-Feb-11 13:28N 34°12' W 120°00'712.5
2018-Feb-11 12:56N 34°14' W 120°08'512.3
2018-Feb-11 12:30N 34°15' W 120°15'712.3
2018-Feb-11 11:56N 34°17' W 120°23'612.7
2018-Feb-11 11:28N 34°19' W 120°30'612.2
2018-Feb-11 11:00N 34°20' W 120°36'612.0
2018-Feb-11 10:30N 34°22' W 120°43'611.9
2018-Feb-11 10:00N 34°24' W 120°50'611.5
2018-Feb-11 09:30N 34°27' W 120°55'612.2
2018-Feb-11 09:00N 34°32' W 120°60'510.8
2018-Feb-11 08:30N 34°37' W 121°04'3 6.1
2018-Feb-11 08:00N 34°39' W 121°05'611.6
2018-Feb-11 07:30N 34°44' W 121°09'713.1
2018-Feb-11 07:00N 34°50' W 121°13'613.0
2018-Feb-11 06:30N 34°55' W 121°18'713.0
2018-Feb-11 06:00N 35°01' W 121°22'612.9
2018-Feb-11 05:30N 35°06' W 121°26'713.2
2018-Feb-11 05:00N 35°12' W 121°31'713.4
2018-Feb-11 04:30N 35°17' W 121°35'713.4
2018-Feb-11 04:00N 35°23' W 121°40'713.6
2018-Feb-11 03:29N 35°29' W 121°45'10813.6
2018-Feb-10 19:33N 36°59' W 122°57'213.1
2018-Feb-10 19:24N 37°00' W 122°59'812.9
2018-Feb-10 18:45N 37°07' W 123°05'413.1
2018-Feb-10 18:28N 37°10' W 123°07'613.1
2018-Feb-10 18:00N 37°15' W 123°11'1012.8
2018-Feb-10 17:14N 37°24' W 123°18'312.9
2018-Feb-10 17:00N 37°26' W 123°20'712.9
2018-Feb-10 16:30N 37°32' W 123°24'713.1
2018-Feb-10 16:00N 37°38' W 123°27'713.2
2018-Feb-10 15:30N 37°44' W 123°30'612.9
2018-Feb-10 15:00N 37°50' W 123°34'612.7
2018-Feb-10 14:30N 37°56' W 123°37'612.6
2018-Feb-10 14:00N 38°02' W 123°40'612.9
2018-Feb-10 13:30N 38°08' W 123°43'713.3
2018-Feb-10 13:00N 38°14' W 123°46'713.5
2018-Feb-10 12:30N 38°20' W 123°49'713.7
2018-Feb-10 12:00N 38°27' W 123°52'713.7
2018-Feb-10 11:30N 38°33' W 123°55'  

Dump ship's entire track history